ハルツーム の空港の天気 - METARとTAF

ハルツーム国際空港 ( HSSS / KRT ) - スーダン ハルツーム
飛行場実況気象(Metar)
観測時間01/19 13:00 CAT (01/19 11:00 UTC)
風向・風速北 6m/s
視程10km以上
天気現象
なし
気温30℃
湿度11%
気圧1014hPa
METARHSSS 191100Z 01012KT CAVOK 30/M04 Q1014 NOSIG
過去の天気等 Google飛行場航空写真 Wunderground天気予報

過去48時間のMETAR

飛行場予報(TAF)
発表時間: 1/19 07:00 CAT (1/19 05:00 UTC)
予報対象時間: 19日8時 CAT ~ 20日14時 CAT
風向・風速北東 5m/s 瞬間風速 10m/s
視程10km以上
なし
TAF HSSS 190500Z 1906/2012 05009G19KT CAVOK